Aérodrome :
LOGIN :

S'inscrire | Disclaimer

   EN    FR    IT 

 










Légende :    VFR   VFR Marginal   IFR   IFR Intensif   IFR Très Intensif
Visi : 
Plafond : 
>= 8 km
>= 3000ft
5 à 8 km
1000 à 3000 ft
1500m à 5 km
500 à 1000 ft
800 à 1500m
200 à 500 ft
< 800m
< 200 ft
Symboles :   Orages  Brouillard  Fortes neiges  Fortes précipitations  Vent > 20 kt
SIGMETs :   Divers  Orages  Givrage  Turbulence  Onde Orograph.  Cendres Volcan.






- Altitude de l'aérodrome : 12 ft
- Code IATA : NCE


LFMN - Nice

DERNIER METAR :
  • 190500Z 34014KT 280V020 9999 -RA OVC046 09/06 Q1007 NOSIG

METARs EXPIRÉS :
  • 190430Z 36020KT 9999 -RA OVC046 10/05 Q1006 NOSIG
  • 190400Z 35019KT 9999 -RA OVC046 08/06 Q1006 NOSIG
  • 190330Z 35018KT 9999 -RA BKN043 OVC056 08/06 Q1007 NOSIG
  • 190300Z 35018KT 9999 -RA SCT043 OVC056 08/06 Q1007 NOSIG
  • 190230Z 35019KT 9999 -RA SCT043 OVC056 09/05 Q1007 NOSIG

TAF TAF LFMN
Valide du 19 à 03h jusqu'au 20 à 09h UTC


190200Z 1903/2009 01015KT 9999 SCT040 OVC070
TEMPO 1903/1916 02015G25KT RA OVC040
BECMG 1911/1913 27005KT
BECMG 1916/1918 35010KT 9999 BKN060
ATIS : +33 4 93 17 21 16



MET'MAP, la Météo Aéronautique d'un coup d'oeil ! - Copyright ORBIFLY Décembre 2007 - Disclaimer

ORBIFLY MET'MAP TEAM :

Programmation & Développement : Alexandra Zaïnal
Conception & Développement : Baudouin d'Aumeries
Co-Programmation & Développement : Marc-Olivier Méhu
Soutien technique & logistique : Manuel Goepfert

Contact : metmap@orbifly.com




SOURCES & CREDITS :

   NOAA